createdAt,value
2018-02-08T19:01:33.136Z,17.28
2018-02-08T19:02:27.731Z,16.91
2018-02-08T19:04:33.241Z,16.43
2018-02-08T19:05:33.240Z,16.39
2018-02-08T19:07:41.135Z,16.21
2018-02-08T19:10:17.401Z,16.00
2018-02-08T19:11:15.875Z,15.96
2018-02-08T19:13:22.947Z,15.92
2018-02-08T19:15:41.000Z,15.87
2018-02-08T19:16:41.052Z,15.84
2018-02-08T19:18:35.102Z,16.09
2018-02-08T19:19:34.391Z,16.13
2018-02-08T19:21:42.921Z,16.09
2018-02-08T19:22:44.871Z,15.92
2018-02-08T19:24:55.240Z,15.80
2018-02-08T19:25:53.801Z,15.78
2018-02-08T19:28:01.869Z,15.88
2018-02-08T19:29:01.811Z,15.87
2018-02-08T19:31:09.556Z,15.98
2018-02-08T19:32:08.672Z,15.94
2018-02-08T19:34:14.512Z,16.05
2018-02-08T19:35:14.571Z,16.09
2018-02-08T19:37:22.150Z,16.34
2018-02-08T19:38:21.238Z,16.22
2018-02-08T19:40:30.205Z,16.21
2018-02-08T19:41:29.924Z,16.17
2018-02-08T19:43:39.768Z,16.06
2018-02-08T19:44:39.398Z,16.08
2018-02-08T19:46:46.078Z,16.12
2018-02-08T19:47:46.013Z,16.22
2018-02-08T19:49:53.937Z,16.05
2018-02-08T19:50:52.848Z,16.03
2018-02-08T19:53:03.785Z,16.21
2018-02-08T19:54:03.520Z,16.06
2018-02-08T19:56:13.249Z,16.03
2018-02-08T19:57:12.306Z,16.08
2018-02-08T19:59:20.437Z,16.18
2018-02-08T20:00:20.464Z,16.16
2018-02-08T20:01:20.552Z,16.40
2018-02-08T20:02:20.338Z,16.41
2018-02-08T20:03:20.388Z,16.37
2018-02-08T20:04:21.897Z,16.55
2018-02-08T20:05:20.174Z,16.57
2018-02-08T20:06:22.737Z,16.59
2018-02-08T20:07:21.952Z,16.50
2018-02-08T20:08:20.591Z,16.49
2018-02-08T20:09:20.134Z,16.43
2018-02-08T20:10:20.785Z,16.40
2018-02-08T20:11:21.661Z,16.31
2018-02-08T20:12:20.257Z,16.28
2018-02-08T20:13:21.287Z,16.26
2018-02-08T20:14:22.838Z,16.36
2018-02-08T20:15:21.537Z,16.32
2018-02-08T20:16:21.163Z,16.31
2018-02-08T20:17:21.498Z,16.31
2018-02-08T20:18:22.205Z,16.26
2018-02-08T20:19:20.741Z,16.50
2018-02-08T20:20:23.049Z,16.39
2018-02-08T20:21:19.928Z,16.39
2018-02-08T20:22:20.737Z,16.32
2018-02-08T20:23:20.321Z,16.32
2018-02-08T20:24:20.438Z,16.40
2018-02-08T20:25:20.041Z,16.31
2018-02-08T20:26:20.191Z,16.41
2018-02-08T20:27:20.417Z,16.50
2018-02-08T20:28:21.166Z,16.49
2018-02-08T20:29:19.922Z,16.41
2018-02-08T20:30:20.773Z,16.57
2018-02-08T20:31:20.052Z,16.50
2018-02-08T20:32:21.155Z,16.51
2018-02-08T20:33:20.779Z,16.55
2018-02-08T20:34:20.151Z,16.39
2018-02-08T20:35:21.527Z,16.47
2018-02-08T20:36:21.401Z,16.40
2018-02-08T20:37:19.944Z,16.39
2018-02-08T20:38:21.051Z,16.39
2018-02-08T20:40:25.956Z,16.40
2018-02-08T20:40:26.673Z,16.55
2018-02-08T20:42:39.163Z,16.50
2018-02-08T20:43:37.625Z,16.50
2018-02-08T20:45:44.248Z,16.37
2018-02-08T20:46:42.607Z,16.39
2018-02-08T20:48:51.806Z,16.34
2018-02-08T20:49:52.297Z,16.25
2018-02-08T20:51:58.113Z,16.37
2018-02-08T20:52:57.903Z,16.44
2018-02-08T20:53:57.850Z,16.40
2018-02-08T20:54:58.146Z,16.36
2018-02-08T20:55:57.859Z,16.39
2018-02-08T20:56:57.840Z,16.29
2018-02-08T20:57:57.869Z,16.37
2018-02-08T20:58:57.980Z,16.32
2018-02-08T20:59:58.021Z,16.22
2018-02-08T21:00:59.542Z,16.09
2018-02-08T21:01:58.429Z,15.92
2018-02-08T21:02:59.273Z,16.09
2018-02-08T21:03:58.046Z,16.17
2018-02-08T21:04:58.043Z,16.21
2018-02-08T21:05:57.858Z,16.34
2018-02-08T21:06:58.161Z,16.37
2018-02-08T21:07:58.293Z,16.34
2018-02-08T21:08:59.694Z,16.29
2018-02-08T21:09:57.895Z,16.28
2018-02-08T21:10:57.990Z,16.22
2018-02-08T21:11:57.917Z,16.40
2018-02-08T21:12:57.897Z,16.31
2018-02-08T21:13:57.898Z,16.17
2018-02-08T21:14:58.157Z,16.24
2018-02-08T21:15:58.190Z,16.34
2018-02-08T21:16:57.925Z,16.28
2018-02-08T21:17:57.926Z,16.24
2018-02-08T21:18:57.963Z,16.28
2018-02-08T21:19:58.104Z,16.39
2018-02-08T21:20:58.345Z,16.37
2018-02-08T21:21:59.997Z,16.26
2018-02-08T21:22:59.691Z,16.32
2018-02-08T21:23:57.969Z,16.32
2018-02-08T21:25:00.628Z,16.21
2018-02-08T21:26:00.496Z,16.24
2018-02-08T21:26:58.871Z,16.26
2018-02-08T21:27:59.176Z,16.22
2018-02-08T21:28:59.502Z,16.32
2018-02-08T21:29:59.521Z,16.18
2018-02-08T21:31:58.270Z,16.22
2018-02-08T21:32:57.970Z,16.28
2018-02-08T21:33:58.400Z,16.29
2018-02-08T21:34:59.142Z,16.18
2018-02-08T21:35:58.356Z,16.16
2018-02-08T21:36:57.960Z,16.16
2018-02-08T21:37:57.981Z,16.24
2018-02-08T21:38:59.536Z,16.24
2018-02-08T21:39:58.037Z,16.28
2018-02-08T21:40:58.047Z,16.28
2018-02-08T21:41:58.204Z,16.26
2018-02-08T21:42:58.052Z,16.26
2018-02-08T21:43:58.094Z,16.31
2018-02-08T21:44:57.982Z,16.28
2018-02-08T21:45:58.298Z,16.25
2018-02-08T21:46:57.994Z,16.26
2018-02-08T21:47:58.030Z,16.29
2018-02-08T21:48:58.034Z,16.25
2018-02-08T21:49:58.142Z,16.34
2018-02-08T21:50:58.392Z,16.34
2018-02-08T21:51:58.362Z,16.41
2018-02-08T21:52:58.488Z,16.37
2018-02-08T21:53:58.152Z,16.17
2018-02-08T21:54:58.186Z,16.26
2018-02-08T21:55:58.059Z,16.28
2018-02-08T21:56:58.209Z,16.32
2018-02-08T21:57:59.139Z,16.13
2018-02-08T21:58:58.428Z,16.10
2018-02-08T21:59:58.102Z,16.16
2018-02-08T22:00:58.119Z,16.17
2018-02-08T22:01:58.033Z,16.25
2018-02-08T22:02:58.066Z,16.21
2018-02-08T22:03:58.042Z,16.16
2018-02-08T22:04:58.097Z,16.09
2018-02-08T22:05:58.553Z,16.22
2018-02-08T22:07:58.130Z,16.26
2018-02-08T22:08:58.187Z,16.39
2018-02-08T22:09:58.150Z,16.25
2018-02-08T22:10:58.176Z,16.21
2018-02-08T22:11:58.117Z,16.25
2018-02-08T22:12:58.492Z,16.31
2018-02-08T22:14:19.195Z,16.13
2018-02-08T22:14:59.108Z,16.24
2018-02-08T22:15:58.154Z,16.26
2018-02-08T22:16:58.829Z,16.25
2018-02-08T22:17:58.316Z,16.25
2018-02-08T22:18:58.131Z,16.32
2018-02-08T22:20:19.486Z,16.39
2018-02-08T22:20:58.226Z,16.36
2018-02-08T22:21:58.183Z,16.37
2018-02-08T22:22:58.181Z,16.34
2018-02-08T22:23:58.201Z,16.39
2018-02-08T22:24:58.158Z,16.34
2018-02-08T22:26:19.308Z,16.24
2018-02-08T22:26:59.925Z,16.28
2018-02-08T22:27:58.835Z,16.21
2018-02-08T22:28:58.186Z,16.12
2018-02-08T22:29:58.216Z,16.13
2018-02-08T22:31:13.129Z,16.24
2018-02-08T22:32:19.219Z,16.17
2018-02-08T22:32:58.474Z,16.09
2018-02-08T22:33:58.214Z,16.05
2018-02-08T22:34:58.870Z,16.16
2018-02-08T22:35:58.193Z,16.05
2018-02-08T22:36:58.206Z,16.24
2018-02-08T22:38:19.208Z,16.17
2018-02-08T22:38:58.476Z,16.16
2018-02-08T22:39:58.210Z,16.18
2018-02-08T22:40:58.257Z,16.18
2018-02-08T22:41:58.229Z,16.16
2018-02-08T22:42:58.231Z,16.24
2018-02-08T22:44:19.293Z,16.24
2018-02-08T22:44:58.739Z,16.28
2018-02-08T22:45:58.236Z,16.13
2018-02-08T22:46:58.812Z,16.24
2018-02-08T22:49:06.933Z,16.21
